Gizmo — WDE9010 — position and weather

sailwx.info

Track history (hours):
 
Tides and Currents Weather Stations Pressure Air Temp Water Temp Dewpoint Dewpoint Depression Visibility Wind Speed Wind Dir Waves Ship Positions

Gizmo

Owner: Ellison, Bennett, Camden, ME. More information available from US FCC via Universal Licensing System and Coast Guard Vessel Documentation Center.

Last reported at 2014-Oct-24 20:33 UTC. Time now 2014-Oct-24 21:30 UTC.
Position N 35°31' W 076°32'.

Length 12 m; draft 1.4 m.

Type: Pleasure craft. MMSI: 367412350.

Date/timePositionNaut miles runAvg speedWind from/ knotsBaromVisibWave heightAir tempDewpointWater temp
2014-Oct-24 20:33N 35°31' W 076°32'6 6.1
2014-Oct-24 19:33N 35°34' W 076°25'8 7.4
2014-Oct-24 18:29N 35°35' W 076°16'8 6.9
2014-Oct-24 17:16N 35°40' W 076°07'4 6.3
2014-Oct-24 16:33N 35°41' W 076°01'7 7.2
2014-Oct-24 15:33N 35°48' W 076°01'8 8.2
2014-Oct-24 14:33N 35°56' W 075°59'10 9.8
2014-Oct-24 13:32N 36°06' W 076°01'16 0.7
2014-Oct-23 15:24N 36°18' W 076°13'0 0.2
2014-Oct-23 14:33N 36°18' W 076°13'2 2.3
2014-Oct-23 13:31N 36°21' W 076°13'0 0.0
2014-Oct-23 12:31N 36°21' W 076°13'0 0.0
2014-Oct-23 11:31N 36°21' W 076°13'0 0.0
2014-Oct-23 10:31N 36°21' W 076°13'0 0.0
2014-Oct-23 09:31N 36°21' W 076°13'0 0.0
2014-Oct-23 08:31N 36°21' W 076°13'0 0.0
2014-Oct-23 07:31N 36°21' W 076°13'0 0.0
2014-Oct-23 06:31N 36°21' W 076°13'0 0.0
2014-Oct-23 05:31N 36°21' W 076°13'0 0.0
2014-Oct-23 04:31N 36°21' W 076°13'0 0.0
2014-Oct-23 03:31N 36°21' W 076°13'0 0.0
2014-Oct-23 02:31N 36°21' W 076°13'0 0.0
2014-Oct-23 01:31N 36°21' W 076°13'0 0.0
2014-Oct-23 00:31N 36°21' W 076°13'0 0.0
2014-Oct-22 23:31N 36°21' W 076°13'0 0.0
2014-Oct-22 22:31N 36°21' W 076°13'1 1.3
2014-Oct-22 21:33N 36°22' W 076°14'3 3.4
2014-Oct-22 20:33N 36°24' W 076°17'4 3.6
2014-Oct-22 19:31N 36°27' W 076°20'3 3.3
2014-Oct-22 18:32N 36°30' W 076°21'5 5.5
2014-Oct-22 17:33N 36°35' W 076°23'6 6.0
2014-Oct-22 16:33N 36°41' W 076°22'4 4.0
2014-Oct-22 15:32N 36°45' W 076°20'1 0.6
2014-Oct-22 14:33N 36°45' W 076°20'2 1.8
2014-Oct-22 13:33N 36°44' W 076°18'0 0.0
2014-Oct-22 12:33N 36°44' W 076°18'0 0.0
2014-Oct-22 11:33N 36°44' W 076°18'0 0.0
2014-Oct-21 22:21N 36°44' W 076°18'0 0.0
2014-Oct-21 21:33N 36°44' W 076°18'4 3.6
2014-Oct-21 20:33N 36°48' W 076°18'6 6.3
2014-Oct-21 19:33N 36°54' W 076°20'7 6.7
2014-Oct-21 18:33N 37°01' W 076°20'1 1.2
2014-Oct-21 17:33N 37°02' W 076°20'0 0.0
2014-Oct-21 16:33N 37°02' W 076°20'0 0.0
2014-Oct-21 15:33N 37°02' W 076°20'0 0.0
2014-Oct-21 14:33N 37°02' W 076°20'0 0.0
2014-Oct-21 13:33N 37°02' W 076°20'0 0.0
2014-Oct-21 12:33N 37°02' W 076°20'0 0.0
2014-Oct-21 11:33N 37°02' W 076°20'0 0.0
2014-Oct-21 10:33N 37°02' W 076°20'0 0.0
2014-Oct-21 09:33N 37°02' W 076°20'0 0.0
2014-Oct-21 08:33N 37°02' W 076°20'0 0.0
2014-Oct-21 07:33N 37°02' W 076°20'0 0.0
2014-Oct-21 06:33N 37°02' W 076°20'0 0.0
2014-Oct-21 05:33N 37°02' W 076°20'0 0.0
2014-Oct-21 04:33N 37°02' W 076°20'0 0.0
2014-Oct-21 03:33N 37°02' W 076°20'0 0.0
2014-Oct-21 02:33N 37°02' W 076°20'0 0.0
2014-Oct-21 01:33N 37°02' W 076°20'0 0.0
2014-Oct-21 00:33N 37°02' W 076°20'0 0.0
2014-Oct-20 23:33N 37°02' W 076°20'0 0.0
2014-Oct-20 20:21N 37°02' W 076°20'0 0.0
2014-Oct-20 19:33N 37°02' W 076°20'0 0.0
2014-Oct-20 18:33N 37°02' W 076°20'0 0.0
2014-Oct-20 17:33N 37°02' W 076°20'0 0.0
2014-Oct-20 16:33N 37°02' W 076°20'0 0.0
2014-Oct-20 15:33N 37°02' W 076°20'0 0.0
2014-Oct-20 14:33N 37°02' W 076°20'0 0.0
2014-Oct-20 13:33N 37°02' W 076°20'  
2014-Oct-17 18:30N 36°59' W 076°19'8 7.9
2014-Oct-17 17:33N 37°06' W 076°15'10 9.5
2014-Oct-17 16:33N 37°16' W 076°13'38 6.1
2014-Oct-17 10:20N 37°53' W 076°16'0 0.0
2014-Oct-17 09:32N 37°53' W 076°16'0 0.0
2014-Oct-17 08:32N 37°53' W 076°16'0 0.0
2014-Oct-17 07:32N 37°53' W 076°16'0 0.0
2014-Oct-17 06:32N 37°53' W 076°16'0 0.0
2014-Oct-17 05:32N 37°53' W 076°16'0 0.0
2014-Oct-17 04:23N 37°53' W 076°16'83 4.9
2014-Oct-16 11:24N 39°16' W 076°34'1 0.1
2014-Oct-16 01:32N 39°17' W 076°35'0 0.0
2014-Oct-16 00:26N 39°17' W 076°35'0 0.0
2014-Oct-15 23:29N 39°17' W 076°35'0 0.0
2014-Oct-15 21:20N 39°17' W 076°35'0 0.0
2014-Oct-15 20:14N 39°17' W 076°35'0 0.0
2014-Oct-15 18:14N 39°17' W 076°35'0 0.0
2014-Oct-15 17:32N 39°17' W 076°35'0 0.0
2014-Oct-15 14:11N 39°17' W 076°35'0 0.0
2014-Oct-15 13:20N 39°17' W 076°35'0 0.0
2014-Oct-15 12:29N 39°17' W 076°35'0 0.0
2014-Oct-15 11:29N 39°17' W 076°35'0 0.0
2014-Oct-15 09:32N 39°17' W 076°35'0 0.0
2014-Oct-15 08:29N 39°17' W 076°35'0 0.0
2014-Oct-15 07:23N 39°17' W 076°35'0 0.0
2014-Oct-15 06:29N 39°17' W 076°35'0 0.0
2014-Oct-15 05:23N 39°17' W 076°35'0 0.0
2014-Oct-15 04:32N 39°17' W 076°35'0 0.0
2014-Oct-15 03:32N 39°17' W 076°35'0 0.0
2014-Oct-15 01:26N 39°17' W 076°35'0 0.0
2014-Oct-15 00:23N 39°17' W 076°35'0 0.0
2014-Oct-14 23:20N 39°17' W 076°35'0 0.0
2014-Oct-14 22:32N 39°17' W 076°35'0 0.0
2014-Oct-14 21:14N 39°17' W 076°35'  
Track history (hours):
 
Tides and Currents Weather Stations Pressure Air Temp Water Temp Dewpoint Dewpoint Depression Visibility Wind Speed Wind Dir Waves Ship Positions

Gizmo

Owner: Ellison, Bennett, Camden, ME. More information available from US FCC via Universal Licensing System and Coast Guard Vessel Documentation Center.

Last reported at 2014-Oct-24 20:33 UTC. Time now 2014-Oct-24 21:30 UTC.
Position N 35°31' W 076°32'.

Length 12 m; draft 1.4 m.

Type: Pleasure craft. MMSI: 367412350.

Date/timePositionNaut miles runAvg speedWind from/ knotsBaromVisibWave heightAir tempDewpointWater temp
2014-Oct-24 20:33N 35°31' W 076°32'6 6.1
2014-Oct-24 19:33N 35°34' W 076°25'8 7.4
2014-Oct-24 18:29N 35°35' W 076°16'8 6.9
2014-Oct-24 17:16N 35°40' W 076°07'4 6.3
2014-Oct-24 16:33N 35°41' W 076°01'7 7.2
2014-Oct-24 15:33N 35°48' W 076°01'8 8.2
2014-Oct-24 14:33N 35°56' W 075°59'10 9.8
2014-Oct-24 13:32N 36°06' W 076°01'16 0.7
2014-Oct-23 15:24N 36°18' W 076°13'0 0.2
2014-Oct-23 14:33N 36°18' W 076°13'2 2.3
2014-Oct-23 13:31N 36°21' W 076°13'0 0.0
2014-Oct-23 12:31N 36°21' W 076°13'0 0.0
2014-Oct-23 11:31N 36°21' W 076°13'0 0.0
2014-Oct-23 10:31N 36°21' W 076°13'0 0.0
2014-Oct-23 09:31N 36°21' W 076°13'0 0.0
2014-Oct-23 08:31N 36°21' W 076°13'0 0.0
2014-Oct-23 07:31N 36°21' W 076°13'0 0.0
2014-Oct-23 06:31N 36°21' W 076°13'0 0.0
2014-Oct-23 05:31N 36°21' W 076°13'0 0.0
2014-Oct-23 04:31N 36°21' W 076°13'0 0.0
2014-Oct-23 03:31N 36°21' W 076°13'0 0.0
2014-Oct-23 02:31N 36°21' W 076°13'0 0.0
2014-Oct-23 01:31N 36°21' W 076°13'0 0.0
2014-Oct-23 00:31N 36°21' W 076°13'0 0.0
2014-Oct-22 23:31N 36°21' W 076°13'0 0.0
2014-Oct-22 22:31N 36°21' W 076°13'1 1.3
2014-Oct-22 21:33N 36°22' W 076°14'3 3.4
2014-Oct-22 20:33N 36°24' W 076°17'4 3.6
2014-Oct-22 19:31N 36°27' W 076°20'3 3.3
2014-Oct-22 18:32N 36°30' W 076°21'5 5.5
2014-Oct-22 17:33N 36°35' W 076°23'6 6.0
2014-Oct-22 16:33N 36°41' W 076°22'4 4.0
2014-Oct-22 15:32N 36°45' W 076°20'1 0.6
2014-Oct-22 14:33N 36°45' W 076°20'2 1.8
2014-Oct-22 13:33N 36°44' W 076°18'0 0.0
2014-Oct-22 12:33N 36°44' W 076°18'0 0.0
2014-Oct-22 11:33N 36°44' W 076°18'0 0.0
2014-Oct-21 22:21N 36°44' W 076°18'0 0.0
2014-Oct-21 21:33N 36°44' W 076°18'4 3.6
2014-Oct-21 20:33N 36°48' W 076°18'6 6.3
2014-Oct-21 19:33N 36°54' W 076°20'7 6.7
2014-Oct-21 18:33N 37°01' W 076°20'1 1.2
2014-Oct-21 17:33N 37°02' W 076°20'0 0.0
2014-Oct-21 16:33N 37°02' W 076°20'0 0.0
2014-Oct-21 15:33N 37°02' W 076°20'0 0.0
2014-Oct-21 14:33N 37°02' W 076°20'0 0.0
2014-Oct-21 13:33N 37°02' W 076°20'0 0.0
2014-Oct-21 12:33N 37°02' W 076°20'0 0.0
2014-Oct-21 11:33N 37°02' W 076°20'0 0.0
2014-Oct-21 10:33N 37°02' W 076°20'0 0.0
2014-Oct-21 09:33N 37°02' W 076°20'0 0.0
2014-Oct-21 08:33N 37°02' W 076°20'0 0.0
2014-Oct-21 07:33N 37°02' W 076°20'0 0.0
2014-Oct-21 06:33N 37°02' W 076°20'0 0.0
2014-Oct-21 05:33N 37°02' W 076°20'0 0.0
2014-Oct-21 04:33N 37°02' W 076°20'0 0.0
2014-Oct-21 03:33N 37°02' W 076°20'0 0.0
2014-Oct-21 02:33N 37°02' W 076°20'0 0.0
2014-Oct-21 01:33N 37°02' W 076°20'0 0.0
2014-Oct-21 00:33N 37°02' W 076°20'0 0.0
2014-Oct-20 23:33N 37°02' W 076°20'0 0.0
2014-Oct-20 20:21N 37°02' W 076°20'0 0.0
2014-Oct-20 19:33N 37°02' W 076°20'0 0.0
2014-Oct-20 18:33N 37°02' W 076°20'0 0.0
2014-Oct-20 17:33N 37°02' W 076°20'0 0.0
2014-Oct-20 16:33N 37°02' W 076°20'0 0.0
2014-Oct-20 15:33N 37°02' W 076°20'0 0.0
2014-Oct-20 14:33N 37°02' W 076°20'0 0.0
2014-Oct-20 13:33N 37°02' W 076°20'  
2014-Oct-17 18:30N 36°59' W 076°19'8 7.9
2014-Oct-17 17:33N 37°06' W 076°15'10 9.5
2014-Oct-17 16:33N 37°16' W 076°13'38 6.1
2014-Oct-17 10:20N 37°53' W 076°16'0 0.0
2014-Oct-17 09:32N 37°53' W 076°16'0 0.0
2014-Oct-17 08:32N 37°53' W 076°16'0 0.0
2014-Oct-17 07:32N 37°53' W 076°16'0 0.0
2014-Oct-17 06:32N 37°53' W 076°16'0 0.0
2014-Oct-17 05:32N 37°53' W 076°16'0 0.0
2014-Oct-17 04:23N 37°53' W 076°16'83 4.9
2014-Oct-16 11:24N 39°16' W 076°34'1 0.1
2014-Oct-16 01:32N 39°17' W 076°35'0 0.0
2014-Oct-16 00:26N 39°17' W 076°35'0 0.0
2014-Oct-15 23:29N 39°17' W 076°35'0 0.0
2014-Oct-15 21:20N 39°17' W 076°35'0 0.0
2014-Oct-15 20:14N 39°17' W 076°35'0 0.0
2014-Oct-15 18:14N 39°17' W 076°35'0 0.0
2014-Oct-15 17:32N 39°17' W 076°35'0 0.0
2014-Oct-15 14:11N 39°17' W 076°35'0 0.0
2014-Oct-15 13:20N 39°17' W 076°35'0 0.0
2014-Oct-15 12:29N 39°17' W 076°35'0 0.0
2014-Oct-15 11:29N 39°17' W 076°35'0 0.0
2014-Oct-15 09:32N 39°17' W 076°35'0 0.0
2014-Oct-15 08:29N 39°17' W 076°35'0 0.0
2014-Oct-15 07:23N 39°17' W 076°35'0 0.0
2014-Oct-15 06:29N 39°17' W 076°35'0 0.0
2014-Oct-15 05:23N 39°17' W 076°35'0 0.0
2014-Oct-15 04:32N 39°17' W 076°35'0 0.0
2014-Oct-15 03:32N 39°17' W 076°35'0 0.0
2014-Oct-15 01:26N 39°17' W 076°35'0 0.0
2014-Oct-15 00:23N 39°17' W 076°35'0 0.0
2014-Oct-14 23:20N 39°17' W 076°35'0 0.0
2014-Oct-14 22:32N 39°17' W 076°35'0 0.0
2014-Oct-14 21:14N 39°17' W 076°35'  

Dump ship's entire track history